createdAt,value
2018-12-06T00:00:03.341Z,22.03
2018-12-06T00:02:31.609Z,16.23
2018-12-06T00:04:59.534Z,14.80
2018-12-06T00:07:28.147Z,18.20
2018-12-06T00:09:56.275Z,19.83
2018-12-06T00:12:24.532Z,20.97
2018-12-06T00:14:56.922Z,18.07
2018-12-06T00:17:25.089Z,16.77
2018-12-06T00:19:53.761Z,16.93
2018-12-06T00:22:21.873Z,16.40
2018-12-06T00:24:50.122Z,17.30
2018-12-06T00:27:18.717Z,18.80
2018-12-06T00:29:51.109Z,18.40
2018-12-06T00:32:20.005Z,15.60
2018-12-06T00:34:47.921Z,14.50
2018-12-06T00:37:16.109Z,15.43
2018-12-06T00:39:44.256Z,16.60
2018-12-06T00:42:12.548Z,16.73
2018-12-06T00:44:40.835Z,20.13
2018-12-06T00:47:09.039Z,17.53
2018-12-06T00:49:37.220Z,16.37
2018-12-06T00:52:05.323Z,17.60
2018-12-06T00:54:33.476Z,17.60
2018-12-06T00:57:01.685Z,22.73
2018-12-06T00:59:29.899Z,16.60
2018-12-06T01:01:58.065Z,17.50
2018-12-06T01:04:26.259Z,18.10
2018-12-06T01:06:54.559Z,17.70
2018-12-06T01:09:22.601Z,17.37
2018-12-06T01:11:50.833Z,18.17
2018-12-06T01:14:21.127Z,17.40
2018-12-06T01:16:49.141Z,17.50
2018-12-06T01:19:17.310Z,16.67
2018-12-06T01:21:45.508Z,19.13
2018-12-06T01:24:13.810Z,18.63
2018-12-06T01:26:41.868Z,22.33
2018-12-06T01:29:10.144Z,20.87
2018-12-06T01:31:38.213Z,20.83
2018-12-06T01:34:06.485Z,19.10
2018-12-06T01:36:34.649Z,19.33
2018-12-06T01:39:03.125Z,15.73
2018-12-06T01:41:31.046Z,16.97
2018-12-06T01:43:59.264Z,18.03
2018-12-06T01:46:27.332Z,17.73
2018-12-06T01:48:55.517Z,17.73
2018-12-06T01:51:23.670Z,17.67
2018-12-06T01:53:51.744Z,17.53
2018-12-06T01:56:19.962Z,17.50
2018-12-06T01:58:48.104Z,18.70
2018-12-06T02:01:16.328Z,18.47
2018-12-06T02:03:45.396Z,18.37
2018-12-06T02:06:13.592Z,16.77
2018-12-06T02:08:41.780Z,17.33
2018-12-06T02:11:10.001Z,18.57
2018-12-06T02:13:38.249Z,16.63
2018-12-06T02:16:06.341Z,17.77
2018-12-06T02:18:34.644Z,17.70
2018-12-06T02:21:02.743Z,18.90
2018-12-06T02:23:30.984Z,17.77
2018-12-06T02:25:59.204Z,17.80
2018-12-06T02:28:27.368Z,17.73
2018-12-06T02:30:55.589Z,17.73
2018-12-06T02:33:23.789Z,17.70
2018-12-06T02:35:52.034Z,16.67
2018-12-06T02:38:20.133Z,16.10
2018-12-06T02:40:48.323Z,17.53
2018-12-06T02:43:16.486Z,18.63
2018-12-06T02:45:44.661Z,17.77
2018-12-06T02:48:12.801Z,18.67
2018-12-06T02:50:41.102Z,17.73
2018-12-06T02:53:09.367Z,18.17
2018-12-06T02:55:37.557Z,17.93
2018-12-06T02:58:05.764Z,21.33
2018-12-06T03:00:33.753Z,17.87
2018-12-06T03:03:01.934Z,16.73
2018-12-06T03:05:30.222Z,17.90
2018-12-06T03:07:58.369Z,18.43
2018-12-06T03:10:26.593Z,20.37
2018-12-06T03:12:54.480Z,17.73
2018-12-06T03:15:22.617Z,17.60
2018-12-06T03:17:50.922Z,17.33
2018-12-06T03:20:19.044Z,18.80
2018-12-06T03:22:47.262Z,18.13
2018-12-06T03:25:15.483Z,16.43
2018-12-06T03:27:43.701Z,22.67
2018-12-06T03:30:11.822Z,19.33
2018-12-06T03:32:39.883Z,17.20
2018-12-06T03:35:08.106Z,18.07
2018-12-06T03:37:36.282Z,19.20
2018-12-06T03:40:05.127Z,18.73
2018-12-06T03:42:33.341Z,18.83
2018-12-06T03:45:01.542Z,17.30
2018-12-06T03:47:29.705Z,18.50
2018-12-06T03:49:57.882Z,16.53
2018-12-06T03:52:26.045Z,17.37
2018-12-06T03:54:54.331Z,18.00
2018-12-06T03:57:22.467Z,17.53
2018-12-06T03:59:50.710Z,16.67
2018-12-06T04:02:19.100Z,17.30
2018-12-06T04:04:47.285Z,16.50
2018-12-06T04:07:15.444Z,19.97
2018-12-06T04:09:43.596Z,16.13
2018-12-06T04:12:11.866Z,18.43
2018-12-06T04:14:40.082Z,17.13
2018-12-06T04:17:08.202Z,19.53
2018-12-06T04:19:36.369Z,19.47
2018-12-06T04:22:04.525Z,20.40
2018-12-06T04:24:32.762Z,17.53
2018-12-06T04:27:00.970Z,16.83
2018-12-06T04:29:29.030Z,17.90
2018-12-06T04:31:57.008Z,21.53
2018-12-06T04:34:25.204Z,18.03
2018-12-06T04:36:53.506Z,18.73
2018-12-06T04:39:21.709Z,18.20
2018-12-06T04:41:49.917Z,18.50
2018-12-06T04:44:17.833Z,14.80
2018-12-06T04:46:45.939Z,14.97
2018-12-06T04:49:14.094Z,15.20
2018-12-06T04:51:42.371Z,15.97
2018-12-06T04:54:10.545Z,22.57
2018-12-06T04:56:38.823Z,20.47
2018-12-06T04:59:07.040Z,20.33
2018-12-06T05:01:35.191Z,23.77
2018-12-06T05:04:03.481Z,18.90
2018-12-06T05:06:31.530Z,27.87
2018-12-06T05:09:01.266Z,16.73
2018-12-06T05:11:29.698Z,21.60
2018-12-06T05:13:57.968Z,20.63
2018-12-06T05:16:26.186Z,17.53
2018-12-06T05:18:54.371Z,20.20
2018-12-06T05:21:22.557Z,19.40
2018-12-06T05:23:50.744Z,32.87
2018-12-06T05:26:18.893Z,28.13
2018-12-06T05:28:47.083Z,49.63
2018-12-06T05:31:15.504Z,26.03
2018-12-06T05:33:43.625Z,16.53
2018-12-06T05:36:11.769Z,14.67
2018-12-06T05:38:41.687Z,28.50
2018-12-06T05:41:10.132Z,22.70
2018-12-06T05:43:38.353Z,21.33
2018-12-06T05:46:06.576Z,21.70
2018-12-06T05:48:34.765Z,11.73
2018-12-06T05:51:02.652Z,12.60
2018-12-06T05:53:30.834Z,21.47
2018-12-06T05:55:58.963Z,26.87
2018-12-06T05:58:27.229Z,18.10
2018-12-06T06:00:55.281Z,16.20
2018-12-06T06:03:23.569Z,16.03
2018-12-06T06:05:51.788Z,16.10
2018-12-06T06:08:19.889Z,14.87
2018-12-06T06:10:48.509Z,12.03
2018-12-06T06:13:16.670Z,14.40
2018-12-06T06:15:44.972Z,13.80
2018-12-06T06:18:13.190Z,14.53
2018-12-06T06:20:41.409Z,14.47
2018-12-06T06:23:09.477Z,13.23
2018-12-06T06:25:37.535Z,13.03
2018-12-06T06:28:05.597Z,13.57
2018-12-06T06:30:33.811Z,13.77
2018-12-06T06:33:02.054Z,13.70
2018-12-06T06:35:30.273Z,15.93
2018-12-06T06:37:58.441Z,21.97
2018-12-06T06:40:26.668Z,25.60
2018-12-06T06:42:54.958Z,16.40
2018-12-06T06:45:23.125Z,22.77
2018-12-06T06:47:51.309Z,26.57
2018-12-06T06:50:19.547Z,21.63
2018-12-06T06:52:47.714Z,15.67
2018-12-06T06:55:16.135Z,14.67
2018-12-06T06:57:44.357Z,14.60
2018-12-06T07:00:43.466Z,13.23
2018-12-06T07:03:11.682Z,11.10
2018-12-06T07:05:39.983Z,9.17
2018-12-06T07:08:08.197Z,9.67
2018-12-06T07:10:36.304Z,10.60
2018-12-06T07:13:04.538Z,9.33
2018-12-06T07:15:32.686Z,11.47
2018-12-06T07:18:00.901Z,11.60
2018-12-06T07:20:29.145Z,14.20
2018-12-06T07:22:57.417Z,14.63
2018-12-06T07:25:25.676Z,14.53
2018-12-06T07:27:53.958Z,36.87
2018-12-06T07:30:22.105Z,17.67
2018-12-06T07:32:50.397Z,21.83
2018-12-06T07:35:18.637Z,15.17
2018-12-06T07:37:46.870Z,16.03
2018-12-06T07:40:15.078Z,14.93
2018-12-06T07:42:43.322Z,12.10
2018-12-06T07:45:11.516Z,11.00
2018-12-06T07:47:39.917Z,17.43
2018-12-06T07:50:08.237Z,12.23
2018-12-06T07:52:36.459Z,22.40
2018-12-06T07:55:04.826Z,12.40
2018-12-06T07:57:33.030Z,14.10
2018-12-06T08:00:01.319Z,13.80
2018-12-06T08:02:29.581Z,13.53
2018-12-06T08:04:57.778Z,11.60
2018-12-06T08:07:25.980Z,10.30
2018-12-06T08:09:54.147Z,10.27
2018-12-06T08:12:22.362Z,10.70
2018-12-06T08:14:50.557Z,10.90
2018-12-06T08:17:18.857Z,12.97
2018-12-06T08:19:47.105Z,13.13
2018-12-06T08:22:15.579Z,23.43
2018-12-06T08:24:43.767Z,12.93
2018-12-06T08:27:11.985Z,11.00
2018-12-06T08:29:40.205Z,15.23
2018-12-06T08:32:08.479Z,20.33
2018-12-06T08:34:36.725Z,11.63
2018-12-06T08:37:05.050Z,11.17
2018-12-06T08:39:33.292Z,10.10
2018-12-06T08:42:01.621Z,12.73
2018-12-06T08:44:29.804Z,8.43
2018-12-06T08:46:58.033Z,9.83
2018-12-06T08:49:26.376Z,13.00
2018-12-06T08:51:54.716Z,10.60
2018-12-06T08:54:22.961Z,13.03
2018-12-06T08:56:51.483Z,10.97
2018-12-06T08:59:19.765Z,13.00
2018-12-06T09:01:48.080Z,10.40
2018-12-06T09:04:16.349Z,10.00
2018-12-06T09:06:44.508Z,10.77
2018-12-06T09:09:12.728Z,16.73
2018-12-06T09:11:41.003Z,26.20
2018-12-06T09:14:09.254Z,17.33
2018-12-06T09:16:37.489Z,33.40
2018-12-06T09:19:05.697Z,52.03
2018-12-06T09:21:33.939Z,12.10
2018-12-06T09:24:02.028Z,11.73
2018-12-06T09:26:30.187Z,109.57
2018-12-06T09:28:58.449Z,16.47
2018-12-06T09:31:26.661Z,13.17
2018-12-06T09:34:00.046Z,12.50
2018-12-06T09:36:28.372Z,7.47
2018-12-06T09:38:56.642Z,20.53
2018-12-06T09:41:24.963Z,16.97
2018-12-06T09:43:53.116Z,22.83
2018-12-06T09:46:21.402Z,18.50
2018-12-06T09:48:49.670Z,12.50
2018-12-06T09:51:17.942Z,10.03
2018-12-06T09:53:46.094Z,7.47
2018-12-06T09:56:14.333Z,6.83
2018-12-06T09:58:42.601Z,7.43
2018-12-06T10:01:10.821Z,10.93
2018-12-06T10:03:39.001Z,8.37
2018-12-06T10:06:07.177Z,7.50
2018-12-06T10:08:35.409Z,7.40
2018-12-06T10:11:03.638Z,9.37
2018-12-06T10:13:31.922Z,14.33
2018-12-06T10:16:00.073Z,18.07
2018-12-06T10:18:28.049Z,29.57
2018-12-06T10:20:56.280Z,14.97
2018-12-06T10:23:24.358Z,12.07
2018-12-06T10:25:52.506Z,10.87
2018-12-06T10:28:20.686Z,10.00
2018-12-06T10:30:48.860Z,7.70
2018-12-06T10:33:17.079Z,6.37
2018-12-06T10:35:45.302Z,11.60
2018-12-06T10:38:13.521Z,8.77
2018-12-06T10:40:41.690Z,7.63
2018-12-06T10:43:09.841Z,9.00
2018-12-06T10:45:38.026Z,11.33
2018-12-06T10:48:06.300Z,14.03
2018-12-06T10:50:34.450Z,10.70
2018-12-06T10:53:02.623Z,11.67
2018-12-06T10:55:30.805Z,11.03
2018-12-06T10:57:59.078Z,23.93
2018-12-06T11:00:32.361Z,12.37
2018-12-06T11:03:05.801Z,12.27
2018-12-06T11:05:34.022Z,10.57
2018-12-06T11:08:02.299Z,7.67
2018-12-06T11:10:30.442Z,10.83
2018-12-06T11:12:58.736Z,8.63
2018-12-06T11:15:26.885Z,9.77
2018-12-06T11:17:55.117Z,7.57
2018-12-06T11:20:23.342Z,6.40
2018-12-06T11:22:51.557Z,9.47
2018-12-06T11:25:19.762Z,6.10
2018-12-06T11:27:48.005Z,17.30
2018-12-06T11:30:16.221Z,12.97
2018-12-06T11:32:44.496Z,9.00
2018-12-06T11:35:12.742Z,8.40
2018-12-06T11:37:41.004Z,9.53
2018-12-06T11:40:09.191Z,13.73
2018-12-06T11:42:37.521Z,7.97
2018-12-06T11:45:06.194Z,5.97
2018-12-06T11:47:34.405Z,10.40
2018-12-06T11:50:02.589Z,14.30
2018-12-06T11:52:30.643Z,11.70
2018-12-06T11:54:58.729Z,8.10
2018-12-06T11:57:26.964Z,7.30
2018-12-06T11:59:55.210Z,10.40
2018-12-06T12:02:23.421Z,6.10
2018-12-06T12:04:51.721Z,5.40
2018-12-06T12:07:19.883Z,5.80
2018-12-06T12:09:48.105Z,6.70
2018-12-06T12:12:16.324Z,6.37
2018-12-06T12:14:44.502Z,7.40
2018-12-06T12:17:12.669Z,11.23
2018-12-06T12:19:41.040Z,7.23
2018-12-06T12:22:09.261Z,12.27
2018-12-06T12:24:37.430Z,7.93
2018-12-06T12:27:05.581Z,7.37
2018-12-06T12:29:33.637Z,12.87
2018-12-06T12:32:01.721Z,10.77
2018-12-06T12:34:29.974Z,6.93
2018-12-06T12:36:58.125Z,7.37
2018-12-06T12:39:26.341Z,7.57
2018-12-06T12:41:54.561Z,6.90
2018-12-06T12:44:22.780Z,7.60
2018-12-06T12:46:51.006Z,11.03
2018-12-06T12:49:19.227Z,9.60
2018-12-06T12:51:47.340Z,6.03
2018-12-06T12:54:15.577Z,9.70
2018-12-06T12:56:43.656Z,11.17
2018-12-06T12:59:11.860Z,8.93
2018-12-06T13:01:40.036Z,10.53
2018-12-06T13:04:08.712Z,10.20
2018-12-06T13:06:36.863Z,8.70
2018-12-06T13:09:06.782Z,11.60
2018-12-06T13:11:35.061Z,8.50
2018-12-06T13:14:03.251Z,12.27
2018-12-06T13:16:31.721Z,15.63
2018-12-06T13:19:00.270Z,15.37
2018-12-06T13:21:28.441Z,13.67
2018-12-06T13:23:56.673Z,14.73
2018-12-06T13:26:24.780Z,13.33
2018-12-06T13:28:53.204Z,14.87
2018-12-06T13:31:21.377Z,14.23
2018-12-06T13:33:49.482Z,11.27
2018-12-06T13:36:17.760Z,14.23
2018-12-06T13:38:45.880Z,12.67
2018-12-06T13:41:14.099Z,13.23
2018-12-06T13:43:42.420Z,14.43
2018-12-06T13:46:10.774Z,15.30
2018-12-06T13:48:38.986Z,16.10
2018-12-06T13:51:07.113Z,19.57
2018-12-06T13:53:35.399Z,19.73
2018-12-06T13:56:03.577Z,12.80
2018-12-06T13:58:31.813Z,14.40
2018-12-06T14:01:00.262Z,16.90
2018-12-06T14:03:28.607Z,16.83
2018-12-06T14:05:56.716Z,15.27
2018-12-06T14:08:24.947Z,30.17
2018-12-06T14:10:53.178Z,22.33
2018-12-06T14:13:23.740Z,17.37
2018-12-06T14:15:51.642Z,13.77
2018-12-06T14:18:19.931Z,13.10
2018-12-06T14:20:47.893Z,12.87
2018-12-06T14:23:16.172Z,12.10
2018-12-06T14:25:44.392Z,15.77
2018-12-06T14:28:12.673Z,11.40
2018-12-06T14:30:40.931Z,11.70
2018-12-06T14:33:09.160Z,12.07
2018-12-06T14:35:37.261Z,11.67
2018-12-06T14:38:05.439Z,13.43
2018-12-06T14:40:33.711Z,21.87
2018-12-06T14:43:02.134Z,13.17
2018-12-06T14:45:30.410Z,10.73
2018-12-06T14:47:58.672Z,12.07
2018-12-06T14:50:26.792Z,22.23
2018-12-06T14:52:54.833Z,29.53
2018-12-06T14:55:23.048Z,40.50
2018-12-06T14:57:51.283Z,40.83
2018-12-06T15:00:19.572Z,33.80
2018-12-06T15:02:47.794Z,40.60
2018-12-06T15:05:16.012Z,50.60
2018-12-06T15:07:44.232Z,40.13
2018-12-06T15:10:12.402Z,32.67
2018-12-06T15:12:40.597Z,31.97
2018-12-06T15:15:08.937Z,31.53
2018-12-06T15:17:37.111Z,48.07
2018-12-06T15:20:05.309Z,54.33
2018-12-06T15:22:33.501Z,31.43
2018-12-06T15:25:01.871Z,27.60
2018-12-06T15:27:30.040Z,29.37
2018-12-06T15:29:58.412Z,33.10
2018-12-06T15:32:26.573Z,40.37
2018-12-06T15:34:54.809Z,46.80
2018-12-06T15:37:23.071Z,65.77
2018-12-06T15:39:51.109Z,55.67
2018-12-06T15:42:19.311Z,51.33
2018-12-06T15:44:47.376Z,62.67
2018-12-06T15:47:15.702Z,101.80
2018-12-06T15:49:43.890Z,57.40
2018-12-06T15:52:11.869Z,33.83
2018-12-06T15:54:39.934Z,32.80
2018-12-06T15:57:08.232Z,37.00
2018-12-06T15:59:36.449Z,35.87
2018-12-06T16:02:05.006Z,33.73
2018-12-06T16:04:33.267Z,33.87
2018-12-06T16:07:01.560Z,38.97
2018-12-06T16:09:29.776Z,44.40
2018-12-06T16:11:57.981Z,41.03
2018-12-06T16:14:26.189Z,34.03
2018-12-06T16:16:54.288Z,35.03
2018-12-06T16:19:22.957Z,45.27
2018-12-06T16:21:51.193Z,59.63
2018-12-06T16:24:19.459Z,54.50
2018-12-06T16:26:47.700Z,50.97
2018-12-06T16:29:15.995Z,49.30
2018-12-06T16:31:44.149Z,41.10
2018-12-06T16:34:14.125Z,29.80
2018-12-06T16:36:42.341Z,27.00
2018-12-06T16:39:10.638Z,38.40
2018-12-06T16:41:38.830Z,57.73
2018-12-06T16:44:07.117Z,54.57
2018-12-06T16:46:35.288Z,51.87
2018-12-06T16:49:09.929Z,57.53
2018-12-06T16:51:33.787Z,39.93
2018-12-06T16:54:01.929Z,30.73
2018-12-06T16:56:30.229Z,32.07
2018-12-06T16:58:58.393Z,63.60
2018-12-06T17:01:26.514Z,67.03
2018-12-06T17:03:54.784Z,66.30
2018-12-06T17:06:22.908Z,62.03
2018-12-06T17:08:51.074Z,105.93
2018-12-06T17:11:19.233Z,109.07
2018-12-06T17:13:47.509Z,89.97
2018-12-06T17:16:15.784Z,85.83
2018-12-06T17:18:44.004Z,81.70
2018-12-06T17:21:12.165Z,57.13
2018-12-06T17:23:40.389Z,47.27
2018-12-06T17:26:08.563Z,39.03
2018-12-06T17:28:36.730Z,50.27
2018-12-06T17:31:04.951Z,46.17
2018-12-06T17:33:33.169Z,42.40
2018-12-06T17:36:01.395Z,46.10
2018-12-06T17:38:29.498Z,53.20
2018-12-06T17:40:57.784Z,49.10
2018-12-06T17:43:25.941Z,48.57
2018-12-06T17:45:54.149Z,48.20
2018-12-06T17:48:30.883Z,45.27
2018-12-06T17:50:59.734Z,45.60
2018-12-06T17:53:28.348Z,45.13
2018-12-06T17:55:57.053Z,46.63
2018-12-06T17:58:25.317Z,51.03
2018-12-06T18:00:53.437Z,77.53
2018-12-06T18:03:21.658Z,69.70
2018-12-06T18:05:49.751Z,67.87
2018-12-06T18:08:17.891Z,73.80
2018-12-06T18:10:46.318Z,76.57
2018-12-06T18:13:14.489Z,66.07
2018-12-06T18:15:43.009Z,59.43
2018-12-06T18:18:11.330Z,52.63
2018-12-06T18:20:39.551Z,55.83
2018-12-06T18:23:07.730Z,47.27
2018-12-06T18:25:35.839Z,53.47
2018-12-06T18:28:04.045Z,57.87
2018-12-06T18:30:32.293Z,54.67
2018-12-06T18:33:00.553Z,46.60
2018-12-06T18:35:28.712Z,47.20
2018-12-06T18:37:56.939Z,39.83
2018-12-06T18:40:25.152Z,36.07
2018-12-06T18:42:53.216Z,37.17
2018-12-06T18:45:21.393Z,39.67
2018-12-06T18:47:49.718Z,43.30
2018-12-06T18:50:17.934Z,44.53
2018-12-06T18:52:46.207Z,42.23
2018-12-06T18:55:14.378Z,39.83
2018-12-06T18:57:42.560Z,40.53
2018-12-06T19:00:11.465Z,49.63
2018-12-06T19:02:39.608Z,54.70
2018-12-06T19:05:07.858Z,55.40
2018-12-06T19:07:36.102Z,60.30
2018-12-06T19:10:04.673Z,65.07
2018-12-06T19:12:32.972Z,65.00
2018-12-06T19:15:01.126Z,48.33
2018-12-06T19:17:29.466Z,45.00
2018-12-06T19:19:57.588Z,37.43
2018-12-06T19:22:25.807Z,33.33
2018-12-06T19:24:53.971Z,38.00
2018-12-06T19:27:22.143Z,31.60
2018-12-06T19:29:50.392Z,30.50
2018-12-06T19:32:18.582Z,43.23
2018-12-06T19:34:46.950Z,45.40
2018-12-06T19:37:15.026Z,50.87
2018-12-06T19:39:43.221Z,46.73
2018-12-06T19:42:11.357Z,45.27
2018-12-06T19:44:39.633Z,50.80
2018-12-06T19:47:07.751Z,49.50
2018-12-06T19:49:35.901Z,56.37
2018-12-06T19:52:04.123Z,57.13
2018-12-06T19:54:32.170Z,47.00
2018-12-06T19:57:00.353Z,52.53
2018-12-06T19:59:28.586Z,48.97
2018-12-06T20:01:56.660Z,44.80
2018-12-06T20:04:24.837Z,44.30
2018-12-06T20:06:52.958Z,40.77
2018-12-06T20:09:21.229Z,30.33
2018-12-06T20:11:49.402Z,33.43
2018-12-06T20:14:17.618Z,32.90
2018-12-06T20:16:45.889Z,32.57
2018-12-06T20:19:14.020Z,26.80
2018-12-06T20:21:42.349Z,23.33
2018-12-06T20:24:10.650Z,26.97
2018-12-06T20:26:38.697Z,27.13
2018-12-06T20:29:06.933Z,28.93
2018-12-06T20:31:35.209Z,30.67
2018-12-06T20:34:03.450Z,37.17
2018-12-06T20:36:31.704Z,49.10
2018-12-06T20:38:59.972Z,54.37
2018-12-06T20:41:28.237Z,71.93
2018-12-06T20:43:56.460Z,75.83
2018-12-06T20:46:24.729Z,61.37
2018-12-06T20:48:52.973Z,46.40
2018-12-06T20:51:21.270Z,44.45
2018-12-06T20:53:49.490Z,44.73
2018-12-06T20:56:17.658Z,30.23
2018-12-06T20:58:45.931Z,29.53
2018-12-06T21:01:14.013Z,36.70
2018-12-06T21:03:42.121Z,30.90
2018-12-06T21:06:10.335Z,30.77
2018-12-06T21:08:38.537Z,28.77
2018-12-06T21:11:06.746Z,35.03
2018-12-06T21:13:35.011Z,41.43
2018-12-06T21:16:03.155Z,48.73
2018-12-06T21:18:31.393Z,53.73
2018-12-06T21:20:59.608Z,53.47
2018-12-06T21:23:27.753Z,49.60
2018-12-06T21:25:55.839Z,46.37
2018-12-06T21:28:23.913Z,45.10
2018-12-06T21:30:52.187Z,47.07
2018-12-06T21:33:21.304Z,43.87
2018-12-06T21:35:49.750Z,47.23
2018-12-06T21:38:17.297Z,44.55
2018-12-06T21:40:45.571Z,44.90
2018-12-06T21:43:13.734Z,41.50
2018-12-06T21:45:41.926Z,31.40
2018-12-06T21:48:10.230Z,36.23
2018-12-06T21:50:38.300Z,36.50
2018-12-06T21:53:06.497Z,35.37
2018-12-06T21:55:34.677Z,34.80
2018-12-06T21:58:02.853Z,33.47
2018-12-06T22:00:31.129Z,32.77
2018-12-06T22:02:59.277Z,32.73
2018-12-06T22:05:27.485Z,32.95
2018-12-06T22:07:55.733Z,38.90
2018-12-06T22:10:23.959Z,34.95
2018-12-06T22:12:52.177Z,34.50
2018-12-06T22:15:20.398Z,37.25
2018-12-06T22:17:48.669Z,34.50
2018-12-06T22:20:16.813Z,29.37
2018-12-06T22:22:45.053Z,28.73
2018-12-06T22:25:13.328Z,27.75
2018-12-06T22:27:41.551Z,26.07
2018-12-06T22:30:11.635Z,26.42
2018-12-06T22:32:39.972Z,23.60
2018-12-06T22:35:08.161Z,22.37
2018-12-06T22:37:37.877Z,22.20
2018-12-06T22:40:06.505Z,23.50
2018-12-06T22:42:34.682Z,24.07
2018-12-06T22:45:07.852Z,23.75
2018-12-06T22:47:36.140Z,22.48
2018-12-06T22:50:04.517Z,23.93
2018-12-06T22:52:32.725Z,22.48
2018-12-06T22:55:00.922Z,25.72
2018-12-06T22:57:29.065Z,28.57
2018-12-06T22:59:57.281Z,30.27
2018-12-06T23:02:25.245Z,29.65
2018-12-06T23:04:53.325Z,33.23
2018-12-06T23:07:21.597Z,31.95
2018-12-06T23:09:49.818Z,39.38
2018-12-06T23:12:17.965Z,42.88
2018-12-06T23:14:46.041Z,41.20
2018-12-06T23:17:14.205Z,40.03
2018-12-06T23:19:42.417Z,39.83
2018-12-06T23:22:10.720Z,47.88
2018-12-06T23:24:39.040Z,34.63
2018-12-06T23:27:07.276Z,28.00
2018-12-06T23:29:35.525Z,23.25
2018-12-06T23:32:03.797Z,22.80
2018-12-06T23:34:31.966Z,27.85
2018-12-06T23:37:00.240Z,33.40
2018-12-06T23:39:28.226Z,39.73
2018-12-06T23:41:56.476Z,30.40
2018-12-06T23:44:24.798Z,24.85
2018-12-06T23:46:53.045Z,20.30
2018-12-06T23:49:21.186Z,17.50
2018-12-06T23:51:49.301Z,17.15
2018-12-06T23:54:17.476Z,16.65
2018-12-06T23:56:45.696Z,15.00
2018-12-06T23:59:14.015Z,16.35
